sensor_id;sensor_type;location;lat;lon;timestamp;P1;durP1;ratioP1;P2;durP2;ratioP2
2305;SDS011;1161;51.922;8.896;2022-11-20T00:00:20;23.83;;;14.02;;
2305;SDS011;1161;51.922;8.896;2022-11-20T00:02:47;23.73;;;13.25;;
2305;SDS011;1161;51.922;8.896;2022-11-20T00:05:13;33.63;;;13.82;;
2305;SDS011;1161;51.922;8.896;2022-11-20T00:07:40;23.20;;;13.20;;
2305;SDS011;1161;51.922;8.896;2022-11-20T00:10:10;29.15;;;13.70;;
2305;SDS011;1161;51.922;8.896;2022-11-20T00:12:37;21.30;;;12.70;;
2305;SDS011;1161;51.922;8.896;2022-11-20T00:15:06;31.83;;;13.52;;
2305;SDS011;1161;51.922;8.896;2022-11-20T00:17:33;21.70;;;13.43;;
2305;SDS011;1161;51.922;8.896;2022-11-20T00:20:00;27.92;;;15.15;;
2305;SDS011;1161;51.922;8.896;2022-11-20T00:22:27;28.58;;;13.40;;
2305;SDS011;1161;51.922;8.896;2022-11-20T00:24:54;23.02;;;14.57;;
2305;SDS011;1161;51.922;8.896;2022-11-20T00:27:22;29.05;;;16.58;;
2305;SDS011;1161;51.922;8.896;2022-11-20T00:29:49;34.10;;;15.15;;
2305;SDS011;1161;51.922;8.896;2022-11-20T00:32:18;35.47;;;15.18;;
2305;SDS011;1161;51.922;8.896;2022-11-20T00:34:44;25.70;;;13.60;;
2305;SDS011;1161;51.922;8.896;2022-11-20T00:37:11;20.35;;;13.45;;
2305;SDS011;1161;51.922;8.896;2022-11-20T00:39:38;21.92;;;12.27;;
2305;SDS011;1161;51.922;8.896;2022-11-20T00:42:04;22.30;;;14.50;;
2305;SDS011;1161;51.922;8.896;2022-11-20T00:44:31;25.42;;;14.25;;
2305;SDS011;1161;51.922;8.896;2022-11-20T00:46:58;27.20;;;14.10;;
2305;SDS011;1161;51.922;8.896;2022-11-20T00:49:26;33.15;;;17.63;;
2305;SDS011;1161;51.922;8.896;2022-11-20T00:51:53;17.80;;;11.35;;
2305;SDS011;1161;51.922;8.896;2022-11-20T00:54:19;23.25;;;13.68;;
2305;SDS011;1161;51.922;8.896;2022-11-20T00:56:46;26.23;;;13.63;;
2305;SDS011;1161;51.922;8.896;2022-11-20T00:59:13;33.47;;;14.90;;
2305;SDS011;1161;51.922;8.896;2022-11-20T01:01:39;20.52;;;11.27;;
2305;SDS011;1161;51.922;8.896;2022-11-20T01:04:06;26.35;;;14.25;;
2305;SDS011;1161;51.922;8.896;2022-11-20T01:06:35;29.48;;;15.93;;
2305;SDS011;1161;51.922;8.896;2022-11-20T01:09:03;28.85;;;14.82;;
2305;SDS011;1161;51.922;8.896;2022-11-20T01:11:32;17.40;;;12.27;;
2305;SDS011;1161;51.922;8.896;2022-11-20T01:14:00;21.67;;;14.13;;
2305;SDS011;1161;51.922;8.896;2022-11-20T01:16:28;19.40;;;11.70;;
2305;SDS011;1161;51.922;8.896;2022-11-20T01:18:57;25.88;;;13.25;;
2305;SDS011;1161;51.922;8.896;2022-11-20T01:21:26;29.20;;;13.52;;
2305;SDS011;1161;51.922;8.896;2022-11-20T01:23:55;23.42;;;12.00;;
2305;SDS011;1161;51.922;8.896;2022-11-20T01:26:23;20.08;;;11.98;;
2305;SDS011;1161;51.922;8.896;2022-11-20T01:28:51;23.42;;;13.15;;
2305;SDS011;1161;51.922;8.896;2022-11-20T01:31:19;23.15;;;13.65;;
2305;SDS011;1161;51.922;8.896;2022-11-20T01:33:48;23.00;;;14.77;;
2305;SDS011;1161;51.922;8.896;2022-11-20T01:36:16;32.00;;;15.93;;
2305;SDS011;1161;51.922;8.896;2022-11-20T01:38:43;17.92;;;11.68;;
2305;SDS011;1161;51.922;8.896;2022-11-20T01:41:12;31.33;;;14.07;;
2305;SDS011;1161;51.922;8.896;2022-11-20T01:44:01;28.67;;;16.05;;
2305;SDS011;1161;51.922;8.896;2022-11-20T01:46:27;25.92;;;13.55;;
2305;SDS011;1161;51.922;8.896;2022-11-20T01:48:55;23.92;;;13.80;;
2305;SDS011;1161;51.922;8.896;2022-11-20T01:51:26;19.58;;;12.75;;
2305;SDS011;1161;51.922;8.896;2022-11-20T01:53:56;25.23;;;12.85;;
2305;SDS011;1161;51.922;8.896;2022-11-20T01:56:28;25.10;;;13.18;;
2305;SDS011;1161;51.922;8.896;2022-11-20T01:58:56;28.15;;;12.75;;
2305;SDS011;1161;51.922;8.896;2022-11-20T02:01:26;28.77;;;13.60;;
2305;SDS011;1161;51.922;8.896;2022-11-20T02:03:52;29.17;;;12.80;;
2305;SDS011;1161;51.922;8.896;2022-11-20T02:06:22;27.45;;;14.75;;
2305;SDS011;1161;51.922;8.896;2022-11-20T02:08:50;20.60;;;12.25;;
2305;SDS011;1161;51.922;8.896;2022-11-20T02:11:17;23.40;;;13.18;;
2305;SDS011;1161;51.922;8.896;2022-11-20T02:13:45;32.55;;;14.35;;
2305;SDS011;1161;51.922;8.896;2022-11-20T02:16:12;25.05;;;11.35;;
2305;SDS011;1161;51.922;8.896;2022-11-20T02:18:42;25.10;;;12.98;;
2305;SDS011;1161;51.922;8.896;2022-11-20T02:21:13;31.00;;;12.23;;
2305;SDS011;1161;51.922;8.896;2022-11-20T02:26:39;18.98;;;11.70;;
2305;SDS011;1161;51.922;8.896;2022-11-20T02:29:12;29.45;;;13.10;;
2305;SDS011;1161;51.922;8.896;2022-11-20T02:31:40;22.40;;;11.60;;
2305;SDS011;1161;51.922;8.896;2022-11-20T02:34:08;28.88;;;13.57;;
2305;SDS011;1161;51.922;8.896;2022-11-20T02:36:35;24.20;;;11.63;;
2305;SDS011;1161;51.922;8.896;2022-11-20T02:39:03;19.95;;;11.82;;
2305;SDS011;1161;51.922;8.896;2022-11-20T02:41:33;25.50;;;14.30;;
2305;SDS011;1161;51.922;8.896;2022-11-20T02:44:00;35.10;;;14.85;;
2305;SDS011;1161;51.922;8.896;2022-11-20T02:46:27;25.35;;;13.45;;
2305;SDS011;1161;51.922;8.896;2022-11-20T02:48:54;26.33;;;14.80;;
2305;SDS011;1161;51.922;8.896;2022-11-20T02:51:21;28.67;;;14.63;;
2305;SDS011;1161;51.922;8.896;2022-11-20T02:53:49;26.58;;;14.02;;
2305;SDS011;1161;51.922;8.896;2022-11-20T02:56:18;24.65;;;14.10;;
2305;SDS011;1161;51.922;8.896;2022-11-20T02:58:46;26.00;;;15.13;;
2305;SDS011;1161;51.922;8.896;2022-11-20T03:01:13;30.08;;;14.45;;
2305;SDS011;1161;51.922;8.896;2022-11-20T03:03:40;29.65;;;14.85;;
2305;SDS011;1161;51.922;8.896;2022-11-20T03:06:07;28.90;;;14.57;;
2305;SDS011;1161;51.922;8.896;2022-11-20T03:08:34;31.92;;;16.50;;
2305;SDS011;1161;51.922;8.896;2022-11-20T03:11:04;37.10;;;16.25;;
2305;SDS011;1161;51.922;8.896;2022-11-20T03:13:32;26.73;;;12.93;;
2305;SDS011;1161;51.922;8.896;2022-11-20T03:16:10;25.05;;;15.43;;
2305;SDS011;1161;51.922;8.896;2022-11-20T03:18:38;34.03;;;15.27;;
2305;SDS011;1161;51.922;8.896;2022-11-20T03:21:05;27.13;;;14.90;;
2305;SDS011;1161;51.922;8.896;2022-11-20T03:23:32;29.02;;;14.50;;
2305;SDS011;1161;51.922;8.896;2022-11-20T03:26:12;26.83;;;17.85;;
2305;SDS011;1161;51.922;8.896;2022-11-20T03:28:40;23.20;;;13.40;;
2305;SDS011;1161;51.922;8.896;2022-11-20T03:31:08;21.45;;;15.13;;
2305;SDS011;1161;51.922;8.896;2022-11-20T03:33:37;24.73;;;13.77;;
2305;SDS011;1161;51.922;8.896;2022-11-20T03:36:05;26.88;;;14.77;;
2305;SDS011;1161;51.922;8.896;2022-11-20T03:38:33;24.48;;;15.38;;
2305;SDS011;1161;51.922;8.896;2022-11-20T03:41:01;24.10;;;14.82;;
2305;SDS011;1161;51.922;8.896;2022-11-20T03:43:28;38.40;;;15.27;;
2305;SDS011;1161;51.922;8.896;2022-11-20T03:45:56;32.45;;;15.93;;
2305;SDS011;1161;51.922;8.896;2022-11-20T03:48:25;30.30;;;14.57;;
2305;SDS011;1161;51.922;8.896;2022-11-20T03:50:52;57.88;;;18.98;;
2305;SDS011;1161;51.922;8.896;2022-11-20T03:53:19;32.33;;;18.73;;
2305;SDS011;1161;51.922;8.896;2022-11-20T03:55:50;32.45;;;18.25;;
2305;SDS011;1161;51.922;8.896;2022-11-20T03:58:17;36.22;;;17.05;;
2305;SDS011;1161;51.922;8.896;2022-11-20T04:00:43;26.77;;;16.10;;
2305;SDS011;1161;51.922;8.896;2022-11-20T04:03:11;31.48;;;16.73;;
2305;SDS011;1161;51.922;8.896;2022-11-20T04:05:39;27.40;;;15.40;;
2305;SDS011;1161;51.922;8.896;2022-11-20T04:08:06;32.60;;;15.98;;
2305;SDS011;1161;51.922;8.896;2022-11-20T04:10:33;32.30;;;16.95;;
2305;SDS011;1161;51.922;8.896;2022-11-20T04:13:00;28.65;;;15.73;;
2305;SDS011;1161;51.922;8.896;2022-11-20T04:15:27;31.23;;;17.38;;
2305;SDS011;1161;51.922;8.896;2022-11-20T04:17:54;30.27;;;16.50;;
2305;SDS011;1161;51.922;8.896;2022-11-20T04:20:21;30.48;;;15.93;;
2305;SDS011;1161;51.922;8.896;2022-11-20T04:22:50;40.25;;;20.17;;
2305;SDS011;1161;51.922;8.896;2022-11-20T04:25:19;43.42;;;19.50;;
2305;SDS011;1161;51.922;8.896;2022-11-20T04:27:46;41.53;;;20.15;;
2305;SDS011;1161;51.922;8.896;2022-11-20T04:30:13;33.33;;;17.77;;
2305;SDS011;1161;51.922;8.896;2022-11-20T04:32:40;34.30;;;18.65;;
2305;SDS011;1161;51.922;8.896;2022-11-20T04:35:09;37.72;;;18.10;;
2305;SDS011;1161;51.922;8.896;2022-11-20T04:37:36;42.15;;;18.52;;
2305;SDS011;1161;51.922;8.896;2022-11-20T04:40:06;26.80;;;15.95;;
2305;SDS011;1161;51.922;8.896;2022-11-20T04:42:34;36.58;;;17.02;;
2305;SDS011;1161;51.922;8.896;2022-11-20T04:45:02;31.35;;;16.75;;
2305;SDS011;1161;51.922;8.896;2022-11-20T04:47:29;32.08;;;18.38;;
2305;SDS011;1161;51.922;8.896;2022-11-20T04:49:56;37.35;;;17.55;;
2305;SDS011;1161;51.922;8.896;2022-11-20T04:52:24;33.45;;;17.02;;
2305;SDS011;1161;51.922;8.896;2022-11-20T04:54:54;32.88;;;16.50;;
2305;SDS011;1161;51.922;8.896;2022-11-20T04:57:23;26.75;;;13.68;;
2305;SDS011;1161;51.922;8.896;2022-11-20T04:59:50;35.65;;;17.63;;
2305;SDS011;1161;51.922;8.896;2022-11-20T05:02:17;31.95;;;15.60;;
2305;SDS011;1161;51.922;8.896;2022-11-20T05:04:45;31.52;;;15.60;;
2305;SDS011;1161;51.922;8.896;2022-11-20T05:07:13;29.00;;;14.38;;
2305;SDS011;1161;51.922;8.896;2022-11-20T05:09:40;27.42;;;15.82;;
2305;SDS011;1161;51.922;8.896;2022-11-20T05:12:10;25.83;;;14.50;;
2305;SDS011;1161;51.922;8.896;2022-11-20T05:14:39;29.30;;;15.68;;
2305;SDS011;1161;51.922;8.896;2022-11-20T05:17:05;24.92;;;16.38;;
2305;SDS011;1161;51.922;8.896;2022-11-20T05:19:32;33.65;;;17.20;;
2305;SDS011;1161;51.922;8.896;2022-11-20T05:21:59;30.98;;;17.90;;
2305;SDS011;1161;51.922;8.896;2022-11-20T05:24:27;30.33;;;14.50;;
2305;SDS011;1161;51.922;8.896;2022-11-20T05:26:54;26.80;;;15.10;;
2305;SDS011;1161;51.922;8.896;2022-11-20T05:29:25;26.65;;;15.65;;
2305;SDS011;1161;51.922;8.896;2022-11-20T05:31:54;29.48;;;14.77;;
2305;SDS011;1161;51.922;8.896;2022-11-20T05:34:20;34.58;;;15.20;;
2305;SDS011;1161;51.922;8.896;2022-11-20T05:36:48;30.58;;;13.50;;
2305;SDS011;1161;51.922;8.896;2022-11-20T05:39:15;31.85;;;15.15;;
2305;SDS011;1161;51.922;8.896;2022-11-20T05:41:42;32.97;;;14.82;;
2305;SDS011;1161;51.922;8.896;2022-11-20T05:44:09;24.27;;;13.70;;
2305;SDS011;1161;51.922;8.896;2022-11-20T05:46:42;24.65;;;12.95;;
2305;SDS011;1161;51.922;8.896;2022-11-20T05:49:10;40.05;;;16.02;;
2305;SDS011;1161;51.922;8.896;2022-11-20T05:51:37;29.70;;;14.30;;
2305;SDS011;1161;51.922;8.896;2022-11-20T05:54:04;28.70;;;14.93;;
2305;SDS011;1161;51.922;8.896;2022-11-20T05:56:31;25.05;;;13.18;;
2305;SDS011;1161;51.922;8.896;2022-11-20T05:58:58;30.65;;;14.70;;
2305;SDS011;1161;51.922;8.896;2022-11-20T06:01:26;35.17;;;15.98;;
2305;SDS011;1161;51.922;8.896;2022-11-20T06:03:53;27.80;;;13.88;;
2305;SDS011;1161;51.922;8.896;2022-11-20T06:06:22;26.67;;;15.80;;
2305;SDS011;1161;51.922;8.896;2022-11-20T06:08:50;35.63;;;16.27;;
2305;SDS011;1161;51.922;8.896;2022-11-20T06:11:18;35.50;;;15.30;;
2305;SDS011;1161;51.922;8.896;2022-11-20T06:13:45;32.05;;;14.30;;
2305;SDS011;1161;51.922;8.896;2022-11-20T06:16:14;25.70;;;14.18;;
2305;SDS011;1161;51.922;8.896;2022-11-20T06:18:42;36.40;;;17.23;;
2305;SDS011;1161;51.922;8.896;2022-11-20T06:21:09;32.30;;;14.77;;
2305;SDS011;1161;51.922;8.896;2022-11-20T06:23:39;36.50;;;16.20;;
2305;SDS011;1161;51.922;8.896;2022-11-20T06:26:10;53.17;;;18.05;;
2305;SDS011;1161;51.922;8.896;2022-11-20T06:28:39;47.92;;;17.20;;
2305;SDS011;1161;51.922;8.896;2022-11-20T06:31:07;37.65;;;16.25;;
2305;SDS011;1161;51.922;8.896;2022-11-20T06:33:35;27.10;;;15.15;;
2305;SDS011;1161;51.922;8.896;2022-11-20T06:36:03;33.47;;;14.05;;
2305;SDS011;1161;51.922;8.896;2022-11-20T06:38:31;34.40;;;17.40;;
2305;SDS011;1161;51.922;8.896;2022-11-20T06:40:59;41.80;;;17.92;;
2305;SDS011;1161;51.922;8.896;2022-11-20T06:43:28;29.25;;;13.98;;
2305;SDS011;1161;51.922;8.896;2022-11-20T06:45:57;28.00;;;15.35;;
2305;SDS011;1161;51.922;8.896;2022-11-20T06:48:26;36.60;;;15.70;;
2305;SDS011;1161;51.922;8.896;2022-11-20T06:50:56;27.90;;;14.68;;
2305;SDS011;1161;51.922;8.896;2022-11-20T06:53:25;33.03;;;14.65;;
2305;SDS011;1161;51.922;8.896;2022-11-20T06:55:55;33.28;;;13.48;;
2305;SDS011;1161;51.922;8.896;2022-11-20T06:58:25;23.40;;;13.90;;
2305;SDS011;1161;51.922;8.896;2022-11-20T07:00:53;27.38;;;13.13;;
2305;SDS011;1161;51.922;8.896;2022-11-20T07:03:21;26.13;;;14.23;;
2305;SDS011;1161;51.922;8.896;2022-11-20T07:05:47;23.70;;;12.57;;
2305;SDS011;1161;51.922;8.896;2022-11-20T07:08:17;38.38;;;14.80;;
2305;SDS011;1161;51.922;8.896;2022-11-20T07:10:46;33.70;;;16.45;;
2305;SDS011;1161;51.922;8.896;2022-11-20T07:13:15;25.88;;;14.07;;
2305;SDS011;1161;51.922;8.896;2022-11-20T07:15:44;33.08;;;14.82;;
2305;SDS011;1161;51.922;8.896;2022-11-20T07:18:11;29.30;;;15.35;;
2305;SDS011;1161;51.922;8.896;2022-11-20T07:20:41;37.15;;;15.40;;
2305;SDS011;1161;51.922;8.896;2022-11-20T07:23:08;28.83;;;15.90;;
2305;SDS011;1161;51.922;8.896;2022-11-20T07:25:39;36.40;;;15.93;;
2305;SDS011;1161;51.922;8.896;2022-11-20T07:28:06;30.02;;;14.50;;
2305;SDS011;1161;51.922;8.896;2022-11-20T07:30:32;31.10;;;15.02;;
2305;SDS011;1161;51.922;8.896;2022-11-20T07:33:01;29.73;;;14.80;;
2305;SDS011;1161;51.922;8.896;2022-11-20T07:35:27;35.28;;;16.08;;
2305;SDS011;1161;51.922;8.896;2022-11-20T07:37:54;31.70;;;16.30;;
2305;SDS011;1161;51.922;8.896;2022-11-20T07:40:21;35.70;;;15.18;;
2305;SDS011;1161;51.922;8.896;2022-11-20T07:42:48;31.75;;;15.32;;
2305;SDS011;1161;51.922;8.896;2022-11-20T07:45:15;27.23;;;14.85;;
2305;SDS011;1161;51.922;8.896;2022-11-20T07:47:42;34.72;;;15.38;;
2305;SDS011;1161;51.922;8.896;2022-11-20T07:50:11;36.75;;;17.05;;
2305;SDS011;1161;51.922;8.896;2022-11-20T07:52:37;30.63;;;15.77;;
2305;SDS011;1161;51.922;8.896;2022-11-20T07:55:05;33.83;;;18.05;;
2305;SDS011;1161;51.922;8.896;2022-11-20T07:57:32;44.25;;;18.27;;
2305;SDS011;1161;51.922;8.896;2022-11-20T07:59:59;36.13;;;18.33;;
2305;SDS011;1161;51.922;8.896;2022-11-20T08:02:26;38.88;;;17.20;;
2305;SDS011;1161;51.922;8.896;2022-11-20T08:04:53;36.08;;;17.10;;
2305;SDS011;1161;51.922;8.896;2022-11-20T08:07:21;49.00;;;20.27;;
2305;SDS011;1161;51.922;8.896;2022-11-20T08:09:48;40.13;;;18.70;;
2305;SDS011;1161;51.922;8.896;2022-11-20T08:12:16;45.53;;;19.20;;
2305;SDS011;1161;51.922;8.896;2022-11-20T08:15:01;38.00;;;16.55;;
2305;SDS011;1161;51.922;8.896;2022-11-20T08:17:29;36.95;;;18.02;;
2305;SDS011;1161;51.922;8.896;2022-11-20T08:19:56;31.08;;;16.50;;
2305;SDS011;1161;51.922;8.896;2022-11-20T08:22:25;45.47;;;18.95;;
2305;SDS011;1161;51.922;8.896;2022-11-20T08:24:51;40.00;;;21.90;;
2305;SDS011;1161;51.922;8.896;2022-11-20T08:27:18;43.53;;;20.70;;
2305;SDS011;1161;51.922;8.896;2022-11-20T08:29:45;41.42;;;19.17;;
2305;SDS011;1161;51.922;8.896;2022-11-20T08:32:12;30.48;;;17.15;;
2305;SDS011;1161;51.922;8.896;2022-11-20T08:34:39;37.03;;;16.83;;
2305;SDS011;1161;51.922;8.896;2022-11-20T08:37:05;39.30;;;17.52;;
2305;SDS011;1161;51.922;8.896;2022-11-20T08:39:33;35.53;;;17.58;;
2305;SDS011;1161;51.922;8.896;2022-11-20T08:42:06;25.95;;;14.10;;
2305;SDS011;1161;51.922;8.896;2022-11-20T08:44:34;60.95;;;20.00;;
2305;SDS011;1161;51.922;8.896;2022-11-20T08:47:02;51.22;;;17.90;;
2305;SDS011;1161;51.922;8.896;2022-11-20T08:49:31;37.08;;;19.63;;
2305;SDS011;1161;51.922;8.896;2022-11-20T08:51:59;49.92;;;24.25;;
2305;SDS011;1161;51.922;8.896;2022-11-20T08:54:27;56.75;;;25.00;;
2305;SDS011;1161;51.922;8.896;2022-11-20T08:56:55;51.85;;;22.88;;
2305;SDS011;1161;51.922;8.896;2022-11-20T08:59:23;51.25;;;21.25;;
2305;SDS011;1161;51.922;8.896;2022-11-20T09:01:51;50.08;;;21.80;;
2305;SDS011;1161;51.922;8.896;2022-11-20T09:04:17;43.67;;;20.77;;
2305;SDS011;1161;51.922;8.896;2022-11-20T09:06:44;42.92;;;21.08;;
2305;SDS011;1161;51.922;8.896;2022-11-20T09:09:16;35.78;;;16.90;;
2305;SDS011;1161;51.922;8.896;2022-11-20T09:11:43;30.17;;;16.30;;
2305;SDS011;1161;51.922;8.896;2022-11-20T09:14:14;28.33;;;12.63;;
2305;SDS011;1161;51.922;8.896;2022-11-20T09:16:41;29.00;;;12.80;;
2305;SDS011;1161;51.922;8.896;2022-11-20T09:19:08;23.52;;;15.18;;
2305;SDS011;1161;51.922;8.896;2022-11-20T09:21:34;46.22;;;18.17;;
2305;SDS011;1161;51.922;8.896;2022-11-20T09:24:01;37.33;;;17.73;;
2305;SDS011;1161;51.922;8.896;2022-11-20T09:26:29;42.47;;;18.95;;
2305;SDS011;1161;51.922;8.896;2022-11-20T09:28:57;33.47;;;17.15;;
2305;SDS011;1161;51.922;8.896;2022-11-20T09:31:26;29.45;;;15.93;;
2305;SDS011;1161;51.922;8.896;2022-11-20T09:33:57;33.92;;;17.02;;
2305;SDS011;1161;51.922;8.896;2022-11-20T09:36:24;34.95;;;16.20;;
2305;SDS011;1161;51.922;8.896;2022-11-20T09:38:51;31.05;;;13.88;;
2305;SDS011;1161;51.922;8.896;2022-11-20T09:41:37;25.15;;;12.05;;
2305;SDS011;1161;51.922;8.896;2022-11-20T09:44:34;26.45;;;12.77;;
2305;SDS011;1161;51.922;8.896;2022-11-20T09:47:12;24.05;;;11.48;;
2305;SDS011;1161;51.922;8.896;2022-11-20T09:49:49;24.45;;;12.77;;
2305;SDS011;1161;51.922;8.896;2022-11-20T09:52:27;22.40;;;11.85;;
2305;SDS011;1161;51.922;8.896;2022-11-20T09:54:57;22.75;;;11.50;;
2305;SDS011;1161;51.922;8.896;2022-11-20T09:57:25;24.83;;;12.55;;
2305;SDS011;1161;51.922;8.896;2022-11-20T09:59:55;29.27;;;13.10;;
2305;SDS011;1161;51.922;8.896;2022-11-20T10:02:27;27.98;;;12.35;;
2305;SDS011;1161;51.922;8.896;2022-11-20T10:04:56;20.85;;;10.27;;
2305;SDS011;1161;51.922;8.896;2022-11-20T10:07:27;25.25;;;11.98;;
2305;SDS011;1161;51.922;8.896;2022-11-20T10:09:57;22.50;;;9.57;;
2305;SDS011;1161;51.922;8.896;2022-11-20T10:12:27;18.45;;;10.73;;
2305;SDS011;1161;51.922;8.896;2022-11-20T10:15:01;20.70;;;12.45;;
2305;SDS011;1161;51.922;8.896;2022-11-20T10:17:42;23.48;;;10.65;;
2305;SDS011;1161;51.922;8.896;2022-11-20T10:20:18;20.40;;;10.95;;
2305;SDS011;1161;51.922;8.896;2022-11-20T10:22:52;18.92;;;11.63;;
2305;SDS011;1161;51.922;8.896;2022-11-20T10:25:26;20.45;;;11.32;;
2305;SDS011;1161;51.922;8.896;2022-11-20T10:28:05;21.77;;;10.50;;
2305;SDS011;1161;51.922;8.896;2022-11-20T10:30:40;14.82;;;10.25;;
2305;SDS011;1161;51.922;8.896;2022-11-20T10:33:11;18.90;;;11.07;;
2305;SDS011;1161;51.922;8.896;2022-11-20T10:35:42;14.20;;;8.65;;
2305;SDS011;1161;51.922;8.896;2022-11-20T10:38:12;18.50;;;10.57;;
2305;SDS011;1161;51.922;8.896;2022-11-20T10:40:43;24.60;;;11.88;;
2305;SDS011;1161;51.922;8.896;2022-11-20T10:43:12;52.33;;;20.25;;
2305;SDS011;1161;51.922;8.896;2022-11-20T10:45:45;46.33;;;18.92;;
2305;SDS011;1161;51.922;8.896;2022-11-20T10:48:19;27.50;;;14.30;;
2305;SDS011;1161;51.922;8.896;2022-11-20T10:56:24;11.10;;;7.78;;
2305;SDS011;1161;51.922;8.896;2022-11-20T10:59:02;21.88;;;9.15;;
2305;SDS011;1161;51.922;8.896;2022-11-20T11:01:38;17.90;;;9.73;;
2305;SDS011;1161;51.922;8.896;2022-11-20T11:04:20;21.67;;;11.18;;
2305;SDS011;1161;51.922;8.896;2022-11-20T11:06:53;15.75;;;7.20;;
2305;SDS011;1161;51.922;8.896;2022-11-20T11:09:33;12.02;;;9.10;;
2305;SDS011;1161;51.922;8.896;2022-11-20T11:12:05;15.90;;;8.38;;
2305;SDS011;1161;51.922;8.896;2022-11-20T11:14:41;18.33;;;9.25;;
2305;SDS011;1161;51.922;8.896;2022-11-20T11:17:17;10.75;;;7.95;;
2305;SDS011;1161;51.922;8.896;2022-11-20T11:19:57;13.30;;;8.38;;
2305;SDS011;1161;51.922;8.896;2022-11-20T11:22:25;20.13;;;10.48;;
2305;SDS011;1161;51.922;8.896;2022-11-20T11:24:53;16.67;;;9.60;;
2305;SDS011;1161;51.922;8.896;2022-11-20T11:27:20;29.98;;;10.35;;
2305;SDS011;1161;51.922;8.896;2022-11-20T11:29:47;12.68;;;6.40;;
2305;SDS011;1161;51.922;8.896;2022-11-20T11:32:15;9.77;;;6.15;;
2305;SDS011;1161;51.922;8.896;2022-11-20T11:34:59;15.98;;;6.47;;
2305;SDS011;1161;51.922;8.896;2022-11-20T11:37:26;14.52;;;7.88;;
2305;SDS011;1161;51.922;8.896;2022-11-20T11:40:00;14.48;;;6.78;;
2305;SDS011;1161;51.922;8.896;2022-11-20T11:42:27;11.88;;;6.60;;
2305;SDS011;1161;51.922;8.896;2022-11-20T11:44:54;13.90;;;5.57;;
2305;SDS011;1161;51.922;8.896;2022-11-20T11:47:32;7.90;;;4.80;;
2305;SDS011;1161;51.922;8.896;2022-11-20T11:50:07;17.98;;;8.15;;
2305;SDS011;1161;51.922;8.896;2022-11-20T11:52:42;11.05;;;5.90;;
2305;SDS011;1161;51.922;8.896;2022-11-20T11:55:12;18.30;;;7.60;;
2305;SDS011;1161;51.922;8.896;2022-11-20T11:57:43;14.93;;;7.20;;
2305;SDS011;1161;51.922;8.896;2022-11-20T12:00:14;11.68;;;6.47;;
2305;SDS011;1161;51.922;8.896;2022-11-20T12:02:46;15.35;;;5.10;;
2305;SDS011;1161;51.922;8.896;2022-11-20T12:05:23;9.00;;;6.37;;
2305;SDS011;1161;51.922;8.896;2022-11-20T12:07:52;10.13;;;5.35;;
2305;SDS011;1161;51.922;8.896;2022-11-20T12:10:22;9.82;;;6.25;;
2305;SDS011;1161;51.922;8.896;2022-11-20T12:12:54;11.55;;;7.13;;
2305;SDS011;1161;51.922;8.896;2022-11-20T12:15:26;8.18;;;5.57;;
2305;SDS011;1161;51.922;8.896;2022-11-20T12:17:56;15.23;;;8.63;;
2305;SDS011;1161;51.922;8.896;2022-11-20T12:20:26;15.70;;;8.30;;
2305;SDS011;1161;51.922;8.896;2022-11-20T12:22:56;15.13;;;7.13;;
2305;SDS011;1161;51.922;8.896;2022-11-20T12:25:29;15.65;;;6.22;;
2305;SDS011;1161;51.922;8.896;2022-11-20T12:28:01;16.73;;;7.47;;
2305;SDS011;1161;51.922;8.896;2022-11-20T12:30:35;19.10;;;7.18;;
2305;SDS011;1161;51.922;8.896;2022-11-20T12:33:12;15.45;;;8.40;;
2305;SDS011;1161;51.922;8.896;2022-11-20T12:35:50;15.63;;;7.18;;
2305;SDS011;1161;51.922;8.896;2022-11-20T12:38:31;14.85;;;6.80;;
2305;SDS011;1161;51.922;8.896;2022-11-20T12:41:29;15.15;;;7.95;;
2305;SDS011;1161;51.922;8.896;2022-11-20T12:44:40;15.25;;;8.32;;
2305;SDS011;1161;51.922;8.896;2022-11-20T12:47:34;16.52;;;8.20;;
2305;SDS011;1161;51.922;8.896;2022-11-20T12:50:17;25.92;;;9.27;;
2305;SDS011;1161;51.922;8.896;2022-11-20T12:52:52;18.65;;;9.68;;
2305;SDS011;1161;51.922;8.896;2022-11-20T12:55:28;25.75;;;12.95;;
2305;SDS011;1161;51.922;8.896;2022-11-20T12:58:10;38.97;;;12.15;;
2305;SDS011;1161;51.922;8.896;2022-11-20T13:00:40;21.60;;;9.55;;
2305;SDS011;1161;51.922;8.896;2022-11-20T13:03:28;23.97;;;10.47;;
2305;SDS011;1161;51.922;8.896;2022-11-20T13:06:10;19.90;;;8.60;;
2305;SDS011;1161;51.922;8.896;2022-11-20T13:08:42;23.60;;;9.43;;
2305;SDS011;1161;51.922;8.896;2022-11-20T13:11:12;18.20;;;8.37;;
2305;SDS011;1161;51.922;8.896;2022-11-20T13:13:43;18.27;;;9.20;;
2305;SDS011;1161;51.922;8.896;2022-11-20T13:16:17;23.30;;;11.23;;
2305;SDS011;1161;51.922;8.896;2022-11-20T13:18:46;23.65;;;11.10;;
2305;SDS011;1161;51.922;8.896;2022-11-20T13:21:14;26.33;;;10.37;;
2305;SDS011;1161;51.922;8.896;2022-11-20T13:23:43;19.50;;;10.80;;
2305;SDS011;1161;51.922;8.896;2022-11-20T13:26:17;21.87;;;11.10;;
2305;SDS011;1161;51.922;8.896;2022-11-20T13:28:46;21.50;;;10.10;;
2305;SDS011;1161;51.922;8.896;2022-11-20T13:31:25;20.63;;;10.03;;
2305;SDS011;1161;51.922;8.896;2022-11-20T13:33:55;20.33;;;9.97;;
2305;SDS011;1161;51.922;8.896;2022-11-20T13:36:23;18.10;;;10.47;;
2305;SDS011;1161;51.922;8.896;2022-11-20T13:38:54;22.38;;;10.63;;
2305;SDS011;1161;51.922;8.896;2022-11-20T13:41:25;19.63;;;9.87;;
2305;SDS011;1161;51.922;8.896;2022-11-20T13:44:04;21.80;;;9.50;;
2305;SDS011;1161;51.922;8.896;2022-11-20T13:46:35;16.90;;;9.30;;
2305;SDS011;1161;51.922;8.896;2022-11-20T13:49:06;24.15;;;9.95;;
2305;SDS011;1161;51.922;8.896;2022-11-20T13:51:37;22.63;;;10.00;;
2305;SDS011;1161;51.922;8.896;2022-11-20T13:54:14;25.58;;;11.23;;
2305;SDS011;1161;51.922;8.896;2022-11-20T13:56:52;25.35;;;10.50;;
2305;SDS011;1161;51.922;8.896;2022-11-20T13:59:28;20.80;;;10.63;;
2305;SDS011;1161;51.922;8.896;2022-11-20T14:02:02;23.60;;;11.88;;
2305;SDS011;1161;51.922;8.896;2022-11-20T14:04:30;19.30;;;9.65;;
2305;SDS011;1161;51.922;8.896;2022-11-20T14:06:59;20.55;;;10.15;;
2305;SDS011;1161;51.922;8.896;2022-11-20T14:09:29;22.60;;;11.55;;
2305;SDS011;1161;51.922;8.896;2022-11-20T14:11:58;23.90;;;10.63;;
2305;SDS011;1161;51.922;8.896;2022-11-20T14:14:25;21.05;;;11.85;;
2305;SDS011;1161;51.922;8.896;2022-11-20T14:17:03;27.63;;;12.43;;
2305;SDS011;1161;51.922;8.896;2022-11-20T14:19:31;25.50;;;12.20;;
2305;SDS011;1161;51.922;8.896;2022-11-20T14:22:09;19.35;;;11.98;;
2305;SDS011;1161;51.922;8.896;2022-11-20T14:24:38;23.20;;;12.10;;
2305;SDS011;1161;51.922;8.896;2022-11-20T14:27:09;23.67;;;11.63;;
2305;SDS011;1161;51.922;8.896;2022-11-20T14:29:38;19.77;;;11.57;;
2305;SDS011;1161;51.922;8.896;2022-11-20T14:32:08;26.00;;;13.00;;
2305;SDS011;1161;51.922;8.896;2022-11-20T14:34:38;29.98;;;12.55;;
2305;SDS011;1161;51.922;8.896;2022-11-20T14:37:10;22.20;;;14.98;;
2305;SDS011;1161;51.922;8.896;2022-11-20T14:39:42;27.10;;;13.05;;
2305;SDS011;1161;51.922;8.896;2022-11-20T14:42:15;25.15;;;12.98;;
2305;SDS011;1161;51.922;8.896;2022-11-20T14:44:42;23.67;;;12.38;;
2305;SDS011;1161;51.922;8.896;2022-11-20T14:47:10;22.80;;;13.00;;
2305;SDS011;1161;51.922;8.896;2022-11-20T14:49:38;32.25;;;14.23;;
2305;SDS011;1161;51.922;8.896;2022-11-20T14:52:11;28.07;;;14.47;;
2305;SDS011;1161;51.922;8.896;2022-11-20T14:54:44;29.47;;;13.97;;
2305;SDS011;1161;51.922;8.896;2022-11-20T14:57:25;24.10;;;12.85;;
2305;SDS011;1161;51.922;8.896;2022-11-20T15:00:07;29.77;;;14.88;;
2305;SDS011;1161;51.922;8.896;2022-11-20T15:02:44;36.87;;;15.53;;
2305;SDS011;1161;51.922;8.896;2022-11-20T15:05:12;32.72;;;15.18;;
2305;SDS011;1161;51.922;8.896;2022-11-20T15:07:39;30.05;;;13.70;;
2305;SDS011;1161;51.922;8.896;2022-11-20T15:10:13;29.48;;;15.75;;
2305;SDS011;1161;51.922;8.896;2022-11-20T15:12:47;39.27;;;18.40;;
2305;SDS011;1161;51.922;8.896;2022-11-20T15:15:16;35.42;;;16.25;;